sensor_id;sensor_type;location;lat;lon;timestamp;pressure;altitude;pressure_sealevel;temperature;humidity
76551;BME280;68768;53.156;18.164;2024-01-06T00:00:12;100858.27;;;-3.29;80.58
76551;BME280;68768;53.156;18.164;2024-01-06T00:02:59;100863.68;;;-3.28;80.30
76551;BME280;68768;53.156;18.164;2024-01-06T00:05:27;100865.45;;;-3.27;79.64
76551;BME280;68768;53.156;18.164;2024-01-06T00:07:54;100870.47;;;-3.28;79.98
76551;BME280;68768;53.156;18.164;2024-01-06T00:10:21;100867.02;;;-3.26;80.29
76551;BME280;68768;53.156;18.164;2024-01-06T00:12:47;100868.08;;;-3.24;80.45
76551;BME280;68768;53.156;18.164;2024-01-06T00:15:15;100863.38;;;-3.25;80.57
76551;BME280;68768;53.156;18.164;2024-01-06T00:17:42;100868.64;;;-3.23;80.71
76551;BME280;68768;53.156;18.164;2024-01-06T00:20:09;100878.22;;;-3.21;80.50
76551;BME280;68768;53.156;18.164;2024-01-06T00:22:36;100876.31;;;-3.21;81.28
76551;BME280;68768;53.156;18.164;2024-01-06T00:25:03;100875.12;;;-3.20;80.68
76551;BME280;68768;53.156;18.164;2024-01-06T00:27:31;100871.15;;;-3.19;81.30
76551;BME280;68768;53.156;18.164;2024-01-06T00:29:58;100871.34;;;-3.18;81.36
76551;BME280;68768;53.156;18.164;2024-01-06T00:32:25;100869.47;;;-3.17;81.31
76551;BME280;68768;53.156;18.164;2024-01-06T00:34:52;100862.14;;;-3.19;81.02
76551;BME280;68768;53.156;18.164;2024-01-06T00:37:19;100860.98;;;-3.16;80.45
76551;BME280;68768;53.156;18.164;2024-01-06T00:39:46;100858.55;;;-3.16;80.97
76551;BME280;68768;53.156;18.164;2024-01-06T00:42:13;100864.63;;;-3.16;81.28
76551;BME280;68768;53.156;18.164;2024-01-06T00:44:40;100864.98;;;-3.16;80.89
76551;BME280;68768;53.156;18.164;2024-01-06T00:47:06;100871.23;;;-3.16;80.85
76551;BME280;68768;53.156;18.164;2024-01-06T00:49:33;100873.30;;;-3.16;80.87
76551;BME280;68768;53.156;18.164;2024-01-06T00:52:01;100868.09;;;-3.16;81.09
76551;BME280;68768;53.156;18.164;2024-01-06T00:54:28;100871.75;;;-3.16;81.23
76551;BME280;68768;53.156;18.164;2024-01-06T00:56:56;100878.52;;;-3.15;81.43
76551;BME280;68768;53.156;18.164;2024-01-06T00:59:23;100878.55;;;-3.13;80.93
76551;BME280;68768;53.156;18.164;2024-01-06T01:01:49;100877.51;;;-3.13;80.62
76551;BME280;68768;53.156;18.164;2024-01-06T01:04:16;100884.33;;;-3.11;80.54
76551;BME280;68768;53.156;18.164;2024-01-06T01:06:43;100889.91;;;-3.10;80.68
76551;BME280;68768;53.156;18.164;2024-01-06T01:09:10;100891.70;;;-3.08;81.35
76551;BME280;68768;53.156;18.164;2024-01-06T01:11:41;100894.85;;;-3.06;81.27
76551;BME280;68768;53.156;18.164;2024-01-06T01:14:08;100899.55;;;-3.05;81.20
76551;BME280;68768;53.156;18.164;2024-01-06T01:16:35;100898.52;;;-3.04;81.16
76551;BME280;68768;53.156;18.164;2024-01-06T01:19:02;100901.28;;;-3.05;81.84
76551;BME280;68768;53.156;18.164;2024-01-06T01:21:29;100898.51;;;-3.05;81.70
76551;BME280;68768;53.156;18.164;2024-01-06T01:23:56;100894.67;;;-3.06;82.62
76551;BME280;68768;53.156;18.164;2024-01-06T01:26:23;100891.36;;;-3.07;81.79
76551;BME280;68768;53.156;18.164;2024-01-06T01:28:50;100888.77;;;-3.07;82.28
76551;BME280;68768;53.156;18.164;2024-01-06T01:31:17;100887.17;;;-3.08;82.47
76551;BME280;68768;53.156;18.164;2024-01-06T01:33:43;100889.40;;;-3.09;82.39
76551;BME280;68768;53.156;18.164;2024-01-06T01:36:10;100892.16;;;-3.10;82.59
76551;BME280;68768;53.156;18.164;2024-01-06T01:38:37;100891.11;;;-3.11;82.34
76551;BME280;68768;53.156;18.164;2024-01-06T01:41:04;100899.43;;;-3.11;82.50
76551;BME280;68768;53.156;18.164;2024-01-06T01:43:32;100904.29;;;-3.11;82.80
76551;BME280;68768;53.156;18.164;2024-01-06T01:45:59;100911.75;;;-3.11;82.65
76551;BME280;68768;53.156;18.164;2024-01-06T01:48:26;100912.44;;;-3.11;82.70
76551;BME280;68768;53.156;18.164;2024-01-06T01:50:53;100911.41;;;-3.11;82.73
76551;BME280;68768;53.156;18.164;2024-01-06T01:53:21;100904.98;;;-3.11;82.42
76551;BME280;68768;53.156;18.164;2024-01-06T01:55:50;100903.94;;;-3.11;82.32
76551;BME280;68768;53.156;18.164;2024-01-06T01:58:18;100906.20;;;-3.11;82.46
76551;BME280;68768;53.156;18.164;2024-01-06T02:00:45;100904.29;;;-3.11;82.58
76551;BME280;68768;53.156;18.164;2024-01-06T02:03:13;100909.15;;;-3.11;82.56
76551;BME280;68768;53.156;18.164;2024-01-06T02:05:40;100902.73;;;-3.11;82.65
76551;BME280;68768;53.156;18.164;2024-01-06T02:08:08;100903.61;;;-3.10;82.70
76551;BME280;68768;53.156;18.164;2024-01-06T02:10:35;100902.91;;;-3.11;82.56
76551;BME280;68768;53.156;18.164;2024-01-06T02:13:12;100902.17;;;-3.13;82.74
76551;BME280;68768;53.156;18.164;2024-01-06T02:15:39;100910.02;;;-3.11;82.31
76551;BME280;68768;53.156;18.164;2024-01-06T02:18:07;100911.42;;;-3.10;82.55
76551;BME280;68768;53.156;18.164;2024-01-06T02:20:34;100909.36;;;-3.10;82.42
76551;BME280;68768;53.156;18.164;2024-01-06T02:23:01;100905.04;;;-3.09;82.15
76551;BME280;68768;53.156;18.164;2024-01-06T02:25:28;100906.62;;;-3.08;82.78
76551;BME280;68768;53.156;18.164;2024-01-06T02:27:56;100910.57;;;-3.10;82.74
76551;BME280;68768;53.156;18.164;2024-01-06T02:30:23;100909.86;;;-3.10;82.66
76551;BME280;68768;53.156;18.164;2024-01-06T02:32:49;100904.13;;;-3.11;81.96
76551;BME280;68768;53.156;18.164;2024-01-06T02:35:17;100901.00;;;-3.11;82.38
76551;BME280;68768;53.156;18.164;2024-01-06T02:37:44;100904.14;;;-3.10;82.63
76551;BME280;68768;53.156;18.164;2024-01-06T02:40:13;100901.56;;;-3.09;82.51
76551;BME280;68768;53.156;18.164;2024-01-06T02:42:40;100896.56;;;-3.08;82.33
76551;BME280;68768;53.156;18.164;2024-01-06T02:45:08;100900.90;;;-3.07;82.39
76551;BME280;68768;53.156;18.164;2024-01-06T02:47:38;100899.34;;;-3.08;82.28
76551;BME280;68768;53.156;18.164;2024-01-06T02:50:05;100898.33;;;-3.06;82.65
76551;BME280;68768;53.156;18.164;2024-01-06T02:52:32;100893.46;;;-3.06;82.51
76551;BME280;68768;53.156;18.164;2024-01-06T02:54:59;100897.46;;;-3.05;82.07
76551;BME280;68768;53.156;18.164;2024-01-06T02:57:29;100895.72;;;-3.07;81.84
76551;BME280;68768;53.156;18.164;2024-01-06T02:59:56;100895.88;;;-3.07;82.13
76551;BME280;68768;53.156;18.164;2024-01-06T03:02:23;100896.60;;;-3.06;82.03
76551;BME280;68768;53.156;18.164;2024-01-06T03:04:50;100897.98;;;-3.05;82.32
76551;BME280;68768;53.156;18.164;2024-01-06T03:07:18;100897.83;;;-3.04;82.48
76551;BME280;68768;53.156;18.164;2024-01-06T03:09:45;100900.63;;;-3.03;82.43
76551;BME280;68768;53.156;18.164;2024-01-06T03:12:12;100904.27;;;-3.03;82.47
76551;BME280;68768;53.156;18.164;2024-01-06T03:14:40;100909.14;;;-3.03;82.45
76551;BME280;68768;53.156;18.164;2024-01-06T03:17:07;100911.23;;;-3.02;82.10
76551;BME280;68768;53.156;18.164;2024-01-06T03:19:37;100911.06;;;-3.03;81.93
76551;BME280;68768;53.156;18.164;2024-01-06T03:22:04;100917.14;;;-3.02;81.86
76551;BME280;68768;53.156;18.164;2024-01-06T03:24:31;100918.36;;;-3.02;82.27
76551;BME280;68768;53.156;18.164;2024-01-06T03:26:58;100923.96;;;-3.00;81.81
76551;BME280;68768;53.156;18.164;2024-01-06T03:29:25;100925.89;;;-3.00;81.81
76551;BME280;68768;53.156;18.164;2024-01-06T03:31:52;100925.89;;;-2.99;82.26
76551;BME280;68768;53.156;18.164;2024-01-06T03:34:18;100922.42;;;-2.99;81.93
76551;BME280;68768;53.156;18.164;2024-01-06T03:36:45;100919.30;;;-2.99;82.20
76551;BME280;68768;53.156;18.164;2024-01-06T03:39:12;100925.23;;;-2.98;81.78
76551;BME280;68768;53.156;18.164;2024-01-06T03:41:40;100922.45;;;-2.98;81.59
76551;BME280;68768;53.156;18.164;2024-01-06T03:44:07;100923.31;;;-2.98;81.88
76551;BME280;68768;53.156;18.164;2024-01-06T03:46:35;100924.55;;;-2.97;81.54
76551;BME280;68768;53.156;18.164;2024-01-06T03:49:02;100928.89;;;-2.97;81.88
76551;BME280;68768;53.156;18.164;2024-01-06T03:51:29;100922.96;;;-2.98;81.87
76551;BME280;68768;53.156;18.164;2024-01-06T03:53:56;100925.92;;;-2.98;81.38
76551;BME280;68768;53.156;18.164;2024-01-06T03:56:23;100919.46;;;-2.99;81.53
76551;BME280;68768;53.156;18.164;2024-01-06T03:58:50;100915.69;;;-2.98;81.76
76551;BME280;68768;53.156;18.164;2024-01-06T04:01:17;100918.84;;;-2.96;81.64
76551;BME280;68768;53.156;18.164;2024-01-06T04:03:44;100921.96;;;-2.94;81.76
76551;BME280;68768;53.156;18.164;2024-01-06T04:06:11;100920.94;;;-2.94;81.71
76551;BME280;68768;53.156;18.164;2024-01-06T04:08:41;100923.37;;;-2.94;81.44
76551;BME280;68768;53.156;18.164;2024-01-06T04:11:08;100923.70;;;-2.96;81.62
76551;BME280;68768;53.156;18.164;2024-01-06T04:13:36;100926.14;;;-2.95;81.62
76551;BME280;68768;53.156;18.164;2024-01-06T04:16:03;100922.31;;;-2.95;81.59
76551;BME280;68768;53.156;18.164;2024-01-06T04:18:30;100923.55;;;-2.93;81.44
76551;BME280;68768;53.156;18.164;2024-01-06T04:20:57;100922.85;;;-2.93;81.34
76551;BME280;68768;53.156;18.164;2024-01-06T04:23:24;100930.52;;;-2.93;81.54
76551;BME280;68768;53.156;18.164;2024-01-06T04:25:51;100933.46;;;-2.93;81.19
76551;BME280;68768;53.156;18.164;2024-01-06T04:28:18;100941.80;;;-2.92;81.29
76551;BME280;68768;53.156;18.164;2024-01-06T04:30:45;100948.61;;;-2.91;81.24
76551;BME280;68768;53.156;18.164;2024-01-06T04:33:12;100944.10;;;-2.91;81.40
76551;BME280;68768;53.156;18.164;2024-01-06T04:35:39;100948.66;;;-2.89;81.28
76551;BME280;68768;53.156;18.164;2024-01-06T04:38:06;100948.30;;;-2.89;81.15
76551;BME280;68768;53.156;18.164;2024-01-06T04:40:33;100950.05;;;-2.89;81.21
76551;BME280;68768;53.156;18.164;2024-01-06T04:43:00;100951.09;;;-2.89;81.18
76551;BME280;68768;53.156;18.164;2024-01-06T04:45:27;100945.39;;;-2.88;81.14
76551;BME280;68768;53.156;18.164;2024-01-06T04:47:53;100950.95;;;-2.88;81.39
76551;BME280;68768;53.156;18.164;2024-01-06T04:50:20;100957.70;;;-2.88;81.21
76551;BME280;68768;53.156;18.164;2024-01-06T04:52:48;100951.45;;;-2.89;80.92
76551;BME280;68768;53.156;18.164;2024-01-06T04:55:15;100952.66;;;-2.88;81.11
76551;BME280;68768;53.156;18.164;2024-01-06T04:57:42;100957.54;;;-2.88;81.37
76551;BME280;68768;53.156;18.164;2024-01-06T05:00:09;100956.31;;;-2.88;81.27
76551;BME280;68768;53.156;18.164;2024-01-06T05:02:36;100967.27;;;-2.88;81.14
76551;BME280;68768;53.156;18.164;2024-01-06T05:05:03;100970.42;;;-2.87;80.82
76551;BME280;68768;53.156;18.164;2024-01-06T05:07:30;100971.85;;;-2.85;81.19
76551;BME280;68768;53.156;18.164;2024-01-06T05:09:57;100970.98;;;-2.85;80.89
76551;BME280;68768;53.156;18.164;2024-01-06T05:12:24;100975.48;;;-2.84;80.78
76551;BME280;68768;53.156;18.164;2024-01-06T05:14:51;100979.33;;;-2.84;80.65
76551;BME280;68768;53.156;18.164;2024-01-06T05:17:18;100979.00;;;-2.83;81.00
76551;BME280;68768;53.156;18.164;2024-01-06T05:19:45;100975.70;;;-2.82;80.78
76551;BME280;68768;53.156;18.164;2024-01-06T05:22:12;100975.36;;;-2.82;80.85
76551;BME280;68768;53.156;18.164;2024-01-06T05:24:39;100979.02;;;-2.82;80.81
76551;BME280;68768;53.156;18.164;2024-01-06T05:27:05;100980.08;;;-2.81;80.84
76551;BME280;68768;53.156;18.164;2024-01-06T05:29:32;100978.16;;;-2.81;80.89
76551;BME280;68768;53.156;18.164;2024-01-06T05:31:59;100978.17;;;-2.81;80.38
76551;BME280;68768;53.156;18.164;2024-01-06T05:34:27;100975.05;;;-2.80;80.33
76551;BME280;68768;53.156;18.164;2024-01-06T05:36:53;100974.20;;;-2.79;80.69
76551;BME280;68768;53.156;18.164;2024-01-06T05:39:21;100984.48;;;-2.79;80.51
76551;BME280;68768;53.156;18.164;2024-01-06T05:41:48;100990.90;;;-2.78;80.28
76551;BME280;68768;53.156;18.164;2024-01-06T05:44:15;100983.29;;;-2.78;80.45
76551;BME280;68768;53.156;18.164;2024-01-06T05:46:42;100981.58;;;-2.76;80.43
76551;BME280;68768;53.156;18.164;2024-01-06T05:49:09;100977.42;;;-2.75;80.84
76551;BME280;68768;53.156;18.164;2024-01-06T05:51:37;100973.26;;;-2.75;80.68
76551;BME280;68768;53.156;18.164;2024-01-06T05:54:04;100981.60;;;-2.74;80.40
76551;BME280;68768;53.156;18.164;2024-01-06T05:56:30;100988.74;;;-2.73;80.37
76551;BME280;68768;53.156;18.164;2024-01-06T05:58:57;100996.38;;;-2.73;80.62
76551;BME280;68768;53.156;18.164;2024-01-06T06:01:24;100995.36;;;-2.73;80.26
76551;BME280;68768;53.156;18.164;2024-01-06T06:03:52;100997.46;;;-2.72;80.31
76551;BME280;68768;53.156;18.164;2024-01-06T06:06:19;100994.52;;;-2.72;80.62
76551;BME280;68768;53.156;18.164;2024-01-06T06:08:46;100994.70;;;-2.71;80.54
76551;BME280;68768;53.156;18.164;2024-01-06T06:11:15;101000.97;;;-2.70;80.67
76551;BME280;68768;53.156;18.164;2024-01-06T06:13:43;101009.33;;;-2.69;80.58
76551;BME280;68768;53.156;18.164;2024-01-06T06:16:10;101014.55;;;-2.69;80.54
76551;BME280;68768;53.156;18.164;2024-01-06T06:18:39;101018.71;;;-2.70;80.36
76551;BME280;68768;53.156;18.164;2024-01-06T06:21:07;101027.23;;;-2.69;80.48
76551;BME280;68768;53.156;18.164;2024-01-06T06:23:34;101027.23;;;-2.69;80.31
76551;BME280;68768;53.156;18.164;2024-01-06T06:26:08;101036.44;;;-2.69;80.40
76551;BME280;68768;53.156;18.164;2024-01-06T06:28:35;101040.63;;;-2.68;80.42
76551;BME280;68768;53.156;18.164;2024-01-06T06:31:02;101045.48;;;-2.69;80.47
76551;BME280;68768;53.156;18.164;2024-01-06T06:33:30;101047.73;;;-2.69;80.83
76551;BME280;68768;53.156;18.164;2024-01-06T06:35:57;101050.35;;;-2.68;80.63
76551;BME280;68768;53.156;18.164;2024-01-06T06:38:27;101055.40;;;-2.68;80.66
76551;BME280;68768;53.156;18.164;2024-01-06T06:40:54;101056.80;;;-2.68;80.67
76551;BME280;68768;53.156;18.164;2024-01-06T06:43:21;101057.27;;;-2.69;80.88
76551;BME280;68768;53.156;18.164;2024-01-06T06:45:48;101053.93;;;-2.72;80.85
76551;BME280;68768;53.156;18.164;2024-01-06T06:48:15;101055.35;;;-2.70;80.79
76551;BME280;68768;53.156;18.164;2024-01-06T06:50:42;101058.27;;;-2.71;80.66
76551;BME280;68768;53.156;18.164;2024-01-06T06:53:09;101065.77;;;-2.70;80.66
76551;BME280;68768;53.156;18.164;2024-01-06T06:55:36;101064.90;;;-2.70;80.60
76551;BME280;68768;53.156;18.164;2024-01-06T06:58:04;101058.27;;;-2.71;80.78
76551;BME280;68768;53.156;18.164;2024-01-06T07:00:32;101059.67;;;-2.71;80.69
76551;BME280;68768;53.156;18.164;2024-01-06T07:02:59;101059.84;;;-2.71;80.69
76551;BME280;68768;53.156;18.164;2024-01-06T07:05:27;101064.23;;;-2.69;80.46
76551;BME280;68768;53.156;18.164;2024-01-06T07:07:55;101069.27;;;-2.69;80.77
76551;BME280;68768;53.156;18.164;2024-01-06T07:10:23;101064.92;;;-2.70;80.69
76551;BME280;68768;53.156;18.164;2024-01-06T07:12:50;101069.98;;;-2.69;80.73
76551;BME280;68768;53.156;18.164;2024-01-06T07:15:18;101074.48;;;-2.69;80.88
76551;BME280;68768;53.156;18.164;2024-01-06T07:17:45;101078.54;;;-2.67;80.90
76551;BME280;68768;53.156;18.164;2024-01-06T07:20:12;101077.84;;;-2.67;80.58
76551;BME280;68768;53.156;18.164;2024-01-06T07:22:40;101080.98;;;-2.66;80.47
76551;BME280;68768;53.156;18.164;2024-01-06T07:25:08;101078.04;;;-2.66;80.23
76551;BME280;68768;53.156;18.164;2024-01-06T07:27:35;101078.23;;;-2.65;80.33
76551;BME280;68768;53.156;18.164;2024-01-06T07:30:03;101076.83;;;-2.66;80.40
76551;BME280;68768;53.156;18.164;2024-01-06T07:32:30;101082.57;;;-2.65;80.36
76551;BME280;68768;53.156;18.164;2024-01-06T07:34:57;101088.48;;;-2.65;80.63
76551;BME280;68768;53.156;18.164;2024-01-06T07:37:24;101093.70;;;-2.64;80.19
76551;BME280;68768;53.156;18.164;2024-01-06T07:39:52;101092.48;;;-2.64;80.22
76551;BME280;68768;53.156;18.164;2024-01-06T07:42:19;101097.05;;;-2.62;80.04
76551;BME280;68768;53.156;18.164;2024-01-06T07:44:46;101102.45;;;-2.61;80.15
76551;BME280;68768;53.156;18.164;2024-01-06T07:47:13;101102.98;;;-2.61;80.03
76551;BME280;68768;53.156;18.164;2024-01-06T07:49:41;101113.27;;;-2.59;80.26
76551;BME280;68768;53.156;18.164;2024-01-06T07:52:08;101113.50;;;-2.57;80.37
76551;BME280;68768;53.156;18.164;2024-01-06T07:54:35;101120.48;;;-2.55;80.25
76551;BME280;68768;53.156;18.164;2024-01-06T07:57:01;101121.02;;;-2.53;80.36
76551;BME280;68768;53.156;18.164;2024-01-06T07:59:29;101125.08;;;-2.51;79.81
76551;BME280;68768;53.156;18.164;2024-01-06T08:01:56;101131.04;;;-2.49;80.20
76551;BME280;68768;53.156;18.164;2024-01-06T08:04:23;101136.27;;;-2.48;79.84
76551;BME280;68768;53.156;18.164;2024-01-06T08:06:50;101139.44;;;-2.47;79.91
76551;BME280;68768;53.156;18.164;2024-01-06T08:09:17;101139.11;;;-2.46;79.75
76551;BME280;68768;53.156;18.164;2024-01-06T08:11:44;101146.08;;;-2.44;80.06
76551;BME280;68768;53.156;18.164;2024-01-06T08:14:14;101147.00;;;-2.42;79.68
76551;BME280;68768;53.156;18.164;2024-01-06T08:16:43;101147.41;;;-2.39;79.64
76551;BME280;68768;53.156;18.164;2024-01-06T08:19:10;101153.19;;;-2.38;79.55
76551;BME280;68768;53.156;18.164;2024-01-06T08:21:39;101165.58;;;-2.35;79.65
76551;BME280;68768;53.156;18.164;2024-01-06T08:24:06;101169.77;;;-2.34;79.27
76551;BME280;68768;53.156;18.164;2024-01-06T08:26:33;101174.13;;;-2.33;79.63
76551;BME280;68768;53.156;18.164;2024-01-06T08:29:00;101174.16;;;-2.32;79.65
76551;BME280;68768;53.156;18.164;2024-01-06T08:31:27;101179.28;;;-2.28;79.29
76551;BME280;68768;53.156;18.164;2024-01-06T08:33:54;101192.73;;;-2.26;79.92
76551;BME280;68768;53.156;18.164;2024-01-06T08:36:21;101189.61;;;-2.25;79.06
76551;BME280;68768;53.156;18.164;2024-01-06T08:38:48;101189.96;;;-2.25;79.39
76551;BME280;68768;53.156;18.164;2024-01-06T08:41:15;101192.41;;;-2.24;79.55
76551;BME280;68768;53.156;18.164;2024-01-06T08:43:42;101194.34;;;-2.23;79.36
76551;BME280;68768;53.156;18.164;2024-01-06T08:46:09;101200.11;;;-2.22;79.28
76551;BME280;68768;53.156;18.164;2024-01-06T08:48:36;101204.85;;;-2.19;79.08
76551;BME280;68768;53.156;18.164;2024-01-06T08:51:03;101212.03;;;-2.17;79.03
76551;BME280;68768;53.156;18.164;2024-01-06T08:53:31;101220.92;;;-2.16;78.94
76551;BME280;68768;53.156;18.164;2024-01-06T08:55:58;101219.35;;;-2.16;78.52
76551;BME280;68768;53.156;18.164;2024-01-06T08:58:25;101211.72;;;-2.16;79.06
76551;BME280;68768;53.156;18.164;2024-01-06T09:00:52;101215.05;;;-2.14;78.57
76551;BME280;68768;53.156;18.164;2024-01-06T09:03:20;101220.45;;;-2.14;78.70
76551;BME280;68768;53.156;18.164;2024-01-06T09:05:55;101224.61;;;-2.13;78.82
76551;BME280;68768;53.156;18.164;2024-01-06T09:08:21;101223.42;;;-2.12;78.66
76551;BME280;68768;53.156;18.164;2024-01-06T09:10:50;101226.04;;;-2.12;78.45
76551;BME280;68768;53.156;18.164;2024-01-06T09:13:23;101225.00;;;-2.12;77.84
76551;BME280;68768;53.156;18.164;2024-01-06T09:15:51;101230.60;;;-2.10;78.55
76551;BME280;68768;53.156;18.164;2024-01-06T09:18:18;101233.94;;;-2.09;78.22
76551;BME280;68768;53.156;18.164;2024-01-06T09:20:45;101242.86;;;-2.07;77.99
76551;BME280;68768;53.156;18.164;2024-01-06T09:23:16;101242.89;;;-2.05;78.31
76551;BME280;68768;53.156;18.164;2024-01-06T09:25:43;101246.08;;;-2.02;78.06
76551;BME280;68768;53.156;18.164;2024-01-06T09:28:10;101247.83;;;-2.02;77.91
76551;BME280;68768;53.156;18.164;2024-01-06T09:30:37;101248.53;;;-2.01;77.81
76551;BME280;68768;53.156;18.164;2024-01-06T09:33:04;101247.85;;;-2.01;77.80
76551;BME280;68768;53.156;18.164;2024-01-06T09:35:31;101253.08;;;-2.00;77.45
76551;BME280;68768;53.156;18.164;2024-01-06T09:37:59;101252.20;;;-2.00;77.30
76551;BME280;68768;53.156;18.164;2024-01-06T09:40:26;101254.30;;;-2.00;77.43
76551;BME280;68768;53.156;18.164;2024-01-06T09:42:53;101248.92;;;-1.99;77.61
76551;BME280;68768;53.156;18.164;2024-01-06T09:45:20;101248.45;;;-1.98;77.71
76551;BME280;68768;53.156;18.164;2024-01-06T09:47:50;101249.83;;;-1.98;77.18
76551;BME280;68768;53.156;18.164;2024-01-06T09:50:19;101249.49;;;-1.97;77.28
76551;BME280;68768;53.156;18.164;2024-01-06T09:52:47;101254.02;;;-1.97;77.82
76551;BME280;68768;53.156;18.164;2024-01-06T09:55:31;101252.85;;;-1.95;77.74
76551;BME280;68768;53.156;18.164;2024-01-06T09:57:57;101254.80;;;-1.94;77.85
76551;BME280;68768;53.156;18.164;2024-01-06T10:00:24;101251.84;;;-1.93;77.91
76551;BME280;68768;53.156;18.164;2024-01-06T10:02:51;101255.87;;;-1.92;77.36
76551;BME280;68768;53.156;18.164;2024-01-06T10:05:18;101262.63;;;-1.92;77.02
76551;BME280;68768;53.156;18.164;2024-01-06T10:07:45;101265.24;;;-1.92;77.31
76551;BME280;68768;53.156;18.164;2024-01-06T10:10:14;101262.98;;;-1.92;77.34
76551;BME280;68768;53.156;18.164;2024-01-06T10:12:41;101265.44;;;-1.92;77.19
76551;BME280;68768;53.156;18.164;2024-01-06T10:15:11;101269.83;;;-1.90;77.47
76551;BME280;68768;53.156;18.164;2024-01-06T10:17:40;101271.94;;;-1.89;77.23
76551;BME280;68768;53.156;18.164;2024-01-06T10:20:09;101269.35;;;-1.88;77.36
76551;BME280;68768;53.156;18.164;2024-01-06T10:22:37;101267.80;;;-1.87;77.61
76551;BME280;68768;53.156;18.164;2024-01-06T10:25:06;101266.08;;;-1.87;77.22
76551;BME280;68768;53.156;18.164;2024-01-06T10:27:35;101270.27;;;-1.86;77.10
76551;BME280;68768;53.156;18.164;2024-01-06T10:30:02;101269.23;;;-1.86;76.50
76551;BME280;68768;53.156;18.164;2024-01-06T10:32:31;101267.99;;;-1.87;76.76
76551;BME280;68768;53.156;18.164;2024-01-06T10:35:00;101267.84;;;-1.86;76.76
76551;BME280;68768;53.156;18.164;2024-01-06T10:37:30;101268.02;;;-1.86;76.46
76551;BME280;68768;53.156;18.164;2024-01-06T10:42:35;101267.67;;;-1.85;77.29
76551;BME280;68768;53.156;18.164;2024-01-06T10:45:03;101266.31;;;-1.84;77.19
76551;BME280;68768;53.156;18.164;2024-01-06T10:47:32;101264.40;;;-1.83;76.69
76551;BME280;68768;53.156;18.164;2024-01-06T10:50:00;101260.39;;;-1.83;76.37
76551;BME280;68768;53.156;18.164;2024-01-06T10:52:27;101262.14;;;-1.83;76.09
76551;BME280;68768;53.156;18.164;2024-01-06T10:54:55;101262.14;;;-1.83;76.12
76551;BME280;68768;53.156;18.164;2024-01-06T10:57:23;101261.45;;;-1.83;76.45
76551;BME280;68768;53.156;18.164;2024-01-06T10:59:51;101261.98;;;-1.82;74.85
76551;BME280;68768;53.156;18.164;2024-01-06T11:02:19;101264.74;;;-1.84;74.88
76551;BME280;68768;53.156;18.164;2024-01-06T11:04:47;101262.10;;;-1.86;74.37
76551;BME280;68768;53.156;18.164;2024-01-06T11:07:16;101262.61;;;-1.86;75.33
76551;BME280;68768;53.156;18.164;2024-01-06T11:09:56;101271.14;;;-1.86;75.64
76551;BME280;68768;53.156;18.164;2024-01-06T11:12:24;101271.80;;;-1.87;74.81
76551;BME280;68768;53.156;18.164;2024-01-06T11:14:53;101276.48;;;-1.88;74.83
76551;BME280;68768;53.156;18.164;2024-01-06T11:17:49;101277.35;;;-1.88;74.45
76551;BME280;68768;53.156;18.164;2024-01-06T11:20:20;101277.10;;;-1.91;74.46
76551;BME280;68768;53.156;18.164;2024-01-06T11:22:49;101283.14;;;-1.93;74.21
76551;BME280;68768;53.156;18.164;2024-01-06T11:25:17;101278.38;;;-1.97;73.54
76551;BME280;68768;53.156;18.164;2024-01-06T11:27:49;101275.02;;;-1.99;74.00
76551;BME280;68768;53.156;18.164;2024-01-06T11:30:21;101277.05;;;-2.02;73.89
76551;BME280;68768;53.156;18.164;2024-01-06T11:32:54;101275.08;;;-2.04;73.81
76551;BME280;68768;53.156;18.164;2024-01-06T11:35:22;101275.09;;;-2.03;74.02
76551;BME280;68768;53.156;18.164;2024-01-06T11:37:52;101281.19;;;-2.03;74.10
76551;BME280;68768;53.156;18.164;2024-01-06T11:43:01;101285.56;;;-2.02;73.67
76551;BME280;68768;53.156;18.164;2024-01-06T11:45:29;101286.41;;;-2.02;73.76
76551;BME280;68768;53.156;18.164;2024-01-06T11:47:58;101279.98;;;-2.02;74.29
76551;BME280;68768;53.156;18.164;2024-01-06T11:50:26;101281.92;;;-2.01;73.96
76551;BME280;68768;53.156;18.164;2024-01-06T11:52:54;101285.28;;;-1.99;73.99
76551;BME280;68768;53.156;18.164;2024-01-06T11:55:22;101292.79;;;-1.98;74.07
76551;BME280;68768;53.156;18.164;2024-01-06T11:57:49;101292.64;;;-1.97;73.72
76551;BME280;68768;53.156;18.164;2024-01-06T12:00:17;101295.10;;;-1.96;73.37
76551;BME280;68768;53.156;18.164;2024-01-06T12:02:44;101294.94;;;-1.96;73.21
76551;BME280;68768;53.156;18.164;2024-01-06T12:05:16;101304.33;;;-1.96;72.78
76551;BME280;68768;53.156;18.164;2024-01-06T12:07:56;101303.79;;;-1.96;73.49
76551;BME280;68768;53.156;18.164;2024-01-06T12:10:25;101305.55;;;-1.96;73.89
76551;BME280;68768;53.156;18.164;2024-01-06T12:13:02;101303.64;;;-1.96;73.41
76551;BME280;68768;53.156;18.164;2024-01-06T12:15:32;101295.64;;;-1.95;73.80
76551;BME280;68768;53.156;18.164;2024-01-06T12:18:03;101296.67;;;-1.95;73.15
76551;BME280;68768;53.156;18.164;2024-01-06T12:20:30;101295.45;;;-1.96;72.84
76551;BME280;68768;53.156;18.164;2024-01-06T12:22:58;101298.37;;;-1.97;73.14
76551;BME280;68768;53.156;18.164;2024-01-06T12:25:27;101299.08;;;-1.97;72.88
76551;BME280;68768;53.156;18.164;2024-01-06T12:27:55;101307.07;;;-1.97;73.03
76551;BME280;68768;53.156;18.164;2024-01-06T12:30:22;101300.48;;;-1.97;73.37
76551;BME280;68768;53.156;18.164;2024-01-06T12:32:50;101296.14;;;-1.96;73.34
76551;BME280;68768;53.156;18.164;2024-01-06T12:35:20;101299.81;;;-1.96;72.94
76551;BME280;68768;53.156;18.164;2024-01-06T12:37:47;101300.51;;;-1.96;72.02
76551;BME280;68768;53.156;18.164;2024-01-06T12:40:15;101300.50;;;-1.96;72.27
76551;BME280;68768;53.156;18.164;2024-01-06T12:42:44;101299.13;;;-1.95;72.77
76551;BME280;68768;53.156;18.164;2024-01-06T12:45:11;101301.88;;;-1.96;72.42
76551;BME280;68768;53.156;18.164;2024-01-06T12:47:39;101303.29;;;-1.96;72.82